Time;durP1;ratioP1;P1;durP2;ratioP2;P2;SDS_P1;SDS_P2;PMS_P1;PMS_P2;Temp;Humidity;BMP_temperature;BMP_pressure;BME280_temperature;BME280_humidity;BME280_pressure;Samples;Min_cycle;Max_cycle;Signal;HPM_P1;HPM_P2
2021/07/03 00:02:02;;;;;;;7.57;6.82;;;22.90;55.20;;;;;;5093164;28;20187;-84
2021/07/03 00:04:28;;;;;;;7.68;6.88;;;22.90;55.30;;;;;;5092108;28;20175;-82
2021/07/03 00:06:53;;;;;;;8.23;7.43;;;22.90;55.30;;;;;;5092139;28;20149;-82
2021/07/03 00:09:19;;;;;;;8.02;7.22;;;22.90;55.40;;;;;;5093332;28;20498;-82
2021/07/03 00:11:45;;;;;;;7.20;6.50;;;22.90;55.30;;;;;;5092148;28;20164;-83
2021/07/03 00:14:11;;;;;;;8.40;7.10;;;22.90;55.30;;;;;;5075213;28;20200;-82
2021/07/03 00:16:37;;;;;;;7.80;7.00;;;22.90;55.30;;;;;;5075132;28;20539;-85
2021/07/03 00:19:03;;;;;;;7.18;6.47;;;22.90;55.30;;;;;;5092112;28;20214;-81
2021/07/03 00:21:28;;;;;;;7.65;6.95;;;22.90;55.30;;;;;;5092197;28;20187;-84
2021/07/03 00:23:54;;;;;;;7.60;6.90;;;22.90;55.40;;;;;;5091977;28;20646;-82
2021/07/03 00:26:20;;;;;;;7.53;6.78;;;22.90;55.40;;;;;;5091914;28;20157;-82
2021/07/03 00:28:46;;;;;;;7.53;6.72;;;22.90;55.40;;;;;;5092114;28;20290;-84
2021/07/03 00:31:11;;;;;;;7.43;6.72;;;22.90;55.40;;;;;;5093382;28;20154;-83
2021/07/03 00:33:37;;;;;;;7.45;6.72;;;22.90;55.40;;;;;;5092206;28;20586;-84
2021/07/03 00:36:03;;;;;;;7.82;7.13;;;22.90;55.50;;;;;;5074874;28;20164;-82
2021/07/03 00:38:29;;;;;;;7.57;6.85;;;22.90;55.50;;;;;;5091847;28;20160;-85
2021/07/03 00:40:55;;;;;;;7.60;6.90;;;22.90;55.50;;;;;;5091914;28;20144;-83
2021/07/03 00:43:20;;;;;;;7.65;6.95;;;22.80;55.40;;;;;;5091678;28;20252;-81
2021/07/03 00:45:46;;;;;;;8.23;7.43;;;22.90;55.50;;;;;;5092989;28;20199;-83
2021/07/03 00:48:12;;;;;;;8.02;7.22;;;22.90;55.50;;;;;;5091718;28;20149;-84
2021/07/03 00:50:37;;;;;;;8.10;7.30;;;22.90;55.50;;;;;;5091630;28;20165;-81
2021/07/03 00:53:03;;;;;;;7.55;6.75;;;22.90;55.50;;;;;;5091603;28;20269;-85
2021/07/03 00:55:29;;;;;;;8.27;7.20;;;22.80;55.50;;;;;;5091551;28;20581;-83
2021/07/03 00:57:55;;;;;;;8.23;7.43;;;22.80;55.60;;;;;;5091741;28;20160;-83
2021/07/03 01:00:22;;;;;;;8.05;7.15;;;22.80;55.50;;;;;;5091742;28;20157;-82
2021/07/03 01:02:48;;;;;;;7.82;7.05;;;22.90;55.50;;;;;;5091530;28;20614;-81
2021/07/03 01:05:14;;;;;;;7.90;7.10;;;22.90;55.50;;;;;;5091717;28;20611;-84
2021/07/03 01:07:40;;;;;;;7.43;6.72;;;22.90;55.50;;;;;;5074645;28;20651;-82
2021/07/03 01:10:15;;;;;;;7.70;6.93;;;22.90;55.50;;;;;;5091437;28;20167;-83
2021/07/03 01:12:41;;;;;;;8.07;7.28;;;22.90;55.50;;;;;;5075658;28;20167;-85
2021/07/03 01:15:07;;;;;;;8.05;7.25;;;22.90;55.50;;;;;;5095183;28;20218;-81
2021/07/03 01:17:32;;;;;;;8.02;7.22;;;22.80;55.50;;;;;;5095123;28;20160;-82
2021/07/03 01:19:58;;;;;;;7.25;6.55;;;22.80;55.50;;;;;;5095154;28;20164;-84
2021/07/03 01:22:24;;;;;;;7.90;7.10;;;22.80;55.60;;;;;;5094975;28;20153;-84
2021/07/03 01:24:49;;;;;;;8.20;7.40;;;22.80;55.60;;;;;;5078103;28;20175;-84
2021/07/03 01:27:15;;;;;;;7.90;7.10;;;22.80;55.60;;;;;;5096182;28;20267;-83
2021/07/03 01:29:41;;;;;;;7.90;7.10;;;22.80;55.60;;;;;;5094917;28;20148;-82
2021/07/03 01:32:07;;;;;;;7.82;7.03;;;22.70;55.60;;;;;;5094935;28;20157;-84
2021/07/03 01:34:32;;;;;;;7.70;6.90;;;22.80;55.60;;;;;;5094753;28;20655;-82
2021/07/03 01:36:58;;;;;;;7.82;7.03;;;22.80;56.30;;;;;;5094880;28;20523;-81
2021/07/03 01:39:24;;;;;;;7.85;7.05;;;22.80;55.60;;;;;;5077912;28;20566;-82
2021/07/03 01:41:51;;;;;;;7.72;6.93;;;22.80;55.70;;;;;;5094763;28;20161;-82
2021/07/03 01:44:24;;;;;;;8.02;7.20;;;22.70;55.60;;;;;;5094735;28;20180;-81
2021/07/03 01:46:52;;;;;;;7.50;6.70;;;22.70;55.70;;;;;;5094175;28;20180;-82
2021/07/03 01:49:18;;;;;;;7.93;7.13;;;22.80;55.70;;;;;;5060474;28;20177;-82
2021/07/03 01:51:43;;;;;;;8.10;7.30;;;22.80;55.70;;;;;;5094573;28;20157;-83
2021/07/03 01:54:09;;;;;;;7.80;7.00;;;22.70;55.70;;;;;;5095485;28;20231;-81
2021/07/03 01:56:38;;;;;;;7.80;7.00;;;22.80;55.80;;;;;;5077424;28;20290;-84
2021/07/03 01:59:04;;;;;;;7.97;6.97;;;22.70;55.70;;;;;;5077544;28;20161;-83
2021/07/03 02:01:30;;;;;;;8.00;7.20;;;22.70;55.80;;;;;;5094401;28;20630;-81
2021/07/03 02:03:56;;;;;;;7.70;6.90;;;22.80;55.80;;;;;;5094289;28;20236;-83
2021/07/03 02:06:22;;;;;;;8.18;7.38;;;22.70;55.70;;;;;;5077723;28;20161;-81
2021/07/03 02:08:48;;;;;;;8.30;7.47;;;22.80;55.80;;;;;;5094885;28;20702;-82
2021/07/03 02:11:14;;;;;;;8.18;7.38;;;22.80;55.80;;;;;;5094261;28;20167;-82
2021/07/03 02:13:40;;;;;;;8.40;7.60;;;22.70;56.50;;;;;;5095162;28;20184;-81
2021/07/03 02:16:05;;;;;;;7.68;6.88;;;22.70;55.80;;;;;;5094042;28;20168;-82
2021/07/03 02:18:33;;;;;;;7.32;6.63;;;22.70;55.80;;;;;;5094021;28;20152;-81
2021/07/03 02:21:00;;;;;;;7.07;6.40;;;22.70;55.80;;;;;;5076330;28;20180;-85
2021/07/03 02:23:27;;;;;;;7.68;6.93;;;22.80;55.90;;;;;;5093065;27;20233;-84
2021/07/03 02:25:54;;;;;;;8.30;6.97;;;22.70;55.80;;;;;;5076268;28;20271;-83
2021/07/03 02:28:20;;;;;;;7.13;6.43;;;22.60;55.70;;;;;;5059328;28;20177;-82
2021/07/03 02:30:46;;;;;;;7.35;6.65;;;22.70;55.80;;;;;;5093801;28;20251;-84
2021/07/03 02:33:12;;;;;;;7.85;7.05;;;22.70;55.90;;;;;;5093969;28;20195;-81
2021/07/03 02:35:37;;;;;;;8.13;7.15;;;22.70;55.90;;;;;;5110601;28;20203;-82
2021/07/03 02:38:03;;;;;;;8.23;7.30;;;22.70;55.90;;;;;;5093627;28;20590;-81
2021/07/03 02:40:29;;;;;;;7.65;6.85;;;22.70;55.90;;;;;;5093612;28;20495;-84
2021/07/03 02:42:54;;;;;;;7.55;6.63;;;22.70;55.90;;;;;;5076506;28;20564;-84
2021/07/03 02:45:20;;;;;;;7.88;7.07;;;22.70;55.90;;;;;;5094641;28;20186;-81
2021/07/03 02:47:46;;;;;;;8.00;6.90;;;22.70;56.00;;;;;;5110443;28;20165;-84
2021/07/03 02:50:15;;;;;;;8.55;7.65;;;22.70;56.00;;;;;;5093310;28;20160;-81
2021/07/03 02:52:41;;;;;;;8.05;7.25;;;22.70;55.90;;;;;;5094414;28;20220;-81
2021/07/03 02:55:07;;;;;;;8.15;7.35;;;22.70;56.00;;;;;;5093355;28;20197;-82
2021/07/03 02:57:33;;;;;;;8.50;7.13;;;22.70;55.90;;;;;;5093281;28;20558;-83
2021/07/03 02:59:59;;;;;;;7.82;7.03;;;22.70;55.80;;;;;;5094687;28;20157;-84
2021/07/03 03:02:26;;;;;;;8.57;7.72;;;22.70;55.90;;;;;;5093233;28;20164;-81
2021/07/03 03:04:52;;;;;;;7.95;7.13;;;22.70;55.90;;;;;;5093203;28;20632;-81
2021/07/03 03:07:19;;;;;;;7.57;6.82;;;22.60;55.90;;;;;;5093071;28;20165;-84
2021/07/03 03:09:45;;;;;;;7.75;6.88;;;22.70;56.00;;;;;;5094506;28;20615;-84
2021/07/03 03:12:10;;;;;;;7.72;6.93;;;22.70;55.90;;;;;;5076020;28;20161;-84
2021/07/03 03:14:36;;;;;;;7.75;6.93;;;22.60;55.80;;;;;;5092792;28;20553;-82
2021/07/03 03:17:02;;;;;;;7.72;6.93;;;22.70;56.00;;;;;;5094558;28;20164;-81
2021/07/03 03:19:28;;;;;;;7.95;7.15;;;22.70;55.90;;;;;;5092884;28;20218;-84
2021/07/03 03:21:53;;;;;;;7.53;6.75;;;22.70;55.90;;;;;;5093050;28;20171;-81
2021/07/03 03:24:19;;;;;;;7.72;6.93;;;22.70;55.80;;;;;;5093100;28;20149;-81
2021/07/03 03:26:44;;;;;;;8.35;7.30;;;22.70;55.80;;;;;;5076654;28;20169;-83
2021/07/03 03:29:11;;;;;;;8.00;7.20;;;22.70;55.80;;;;;;5078377;28;20562;-84
2021/07/03 03:31:36;;;;;;;7.80;7.00;;;22.70;55.80;;;;;;5095507;28;20619;-85
2021/07/03 03:34:02;;;;;;;7.95;7.15;;;22.80;55.80;;;;;;5094402;28;20203;-84
2021/07/03 03:36:28;;;;;;;8.00;7.20;;;22.80;55.70;;;;;;5093615;28;20278;-83
2021/07/03 03:38:54;;;;;;;7.65;6.88;;;22.70;55.70;;;;;;5094229;28;20612;-82
2021/07/03 03:41:20;;;;;;;7.40;6.70;;;22.80;55.70;;;;;;5095486;28;20199;-81
2021/07/03 03:43:46;;;;;;;8.00;7.20;;;22.80;55.70;;;;;;5094953;28;20545;-84
2021/07/03 03:46:12;;;;;;;9.15;7.43;;;22.80;55.70;;;;;;5093542;28;20176;-83
2021/07/03 03:48:38;;;;;;;7.97;7.18;;;22.80;55.50;;;;;;5093733;28;20611;-83
2021/07/03 03:51:04;;;;;;;8.48;7.57;;;22.80;55.50;;;;;;5075942;28;20620;-82
2021/07/03 03:53:29;;;;;;;7.80;7.00;;;22.80;55.50;;;;;;5093499;28;20266;-82
2021/07/03 03:55:56;;;;;;;7.57;6.82;;;22.90;55.50;;;;;;5076062;28;20319;-83
2021/07/03 03:58:22;;;;;;;8.45;7.40;;;22.90;55.60;;;;;;5092390;28;20161;-82
2021/07/03 04:00:48;;;;;;;7.25;6.55;;;22.90;55.40;;;;;;5092305;28;20255;-84
2021/07/03 04:03:14;;;;;;;7.22;6.53;;;22.90;55.30;;;;;;5092128;28;20251;-84
2021/07/03 04:05:39;;;;;;;7.72;6.93;;;22.90;55.30;;;;;;5093327;28;20234;-81
2021/07/03 04:08:05;;;;;;;7.57;6.78;;;22.90;55.40;;;;;;5075470;28;20168;-83
2021/07/03 04:10:31;;;;;;;7.60;6.78;;;22.90;55.30;;;;;;5092003;28;20165;-82
2021/07/03 04:12:57;;;;;;;8.23;7.40;;;22.90;55.30;;;;;;5074943;28;20165;-84
2021/07/03 04:15:23;;;;;;;7.68;6.88;;;22.90;55.30;;;;;;5075227;28;20577;-84
2021/07/03 04:17:48;;;;;;;8.15;7.35;;;23.00;55.30;;;;;;5075174;28;20164;-82
2021/07/03 04:20:14;;;;;;;7.47;6.72;;;22.90;55.20;;;;;;5093273;28;20599;-80
2021/07/03 04:22:40;;;;;;;7.47;6.70;;;22.90;55.20;;;;;;5075155;28;20156;-84
2021/07/03 04:25:08;;;;;;;7.30;6.60;;;23.00;55.30;;;;;;5092029;28;20149;-82
2021/07/03 04:27:34;;;;;;;7.60;6.90;;;22.90;55.10;;;;;;5075989;28;20168;-82
2021/07/03 04:30:00;;;;;;;7.93;6.97;;;23.00;55.10;;;;;;5091925;28;20222;-82
2021/07/03 04:32:26;;;;;;;8.10;7.30;;;23.00;55.00;;;;;;5092245;28;20241;-81
2021/07/03 04:34:52;;;;;;;7.80;7.00;;;23.10;55.10;;;;;;5092116;28;20223;-82
2021/07/03 04:37:17;;;;;;;7.57;6.82;;;23.00;55.00;;;;;;5074946;28;20565;-81
2021/07/03 04:39:43;;;;;;;7.32;6.60;;;23.10;54.90;;;;;;5093041;28;20149;-82
2021/07/03 04:42:09;;;;;;;7.22;6.53;;;23.10;54.90;;;;;;5091723;28;20153;-83
2021/07/03 04:44:36;;;;;;;7.88;7.07;;;23.10;54.90;;;;;;5091840;28;20527;-85
2021/07/03 04:47:02;;;;;;;8.10;7.30;;;23.10;54.90;;;;;;5094209;28;20203;-82
2021/07/03 04:49:31;;;;;;;7.70;7.00;;;23.10;55.00;;;;;;5096968;28;20181;-82
2021/07/03 04:51:57;;;;;;;7.13;6.43;;;23.00;55.00;;;;;;5095804;28;20161;-84
2021/07/03 04:54:23;;;;;;;8.63;7.55;;;23.20;54.80;;;;;;5095467;28;20212;-83
2021/07/03 04:56:48;;;;;;;7.75;6.95;;;23.20;54.70;;;;;;5078685;28;20169;-83
2021/07/03 04:59:14;;;;;;;7.57;6.78;;;23.20;54.70;;;;;;5095630;28;20149;-82
2021/07/03 05:01:39;;;;;;;7.57;6.78;;;23.10;54.60;;;;;;5095479;28;20175;-85
2021/07/03 05:04:05;;;;;;;7.57;6.88;;;23.20;54.70;;;;;;5096634;28;20161;-82
2021/07/03 05:06:31;;;;;;;7.97;7.18;;;23.20;54.50;;;;;;5096583;28;20182;-82
2021/07/03 05:08:56;;;;;;;7.60;6.85;;;23.20;54.50;;;;;;5112397;27;20171;-84
2021/07/03 05:11:22;;;;;;;8.25;7.40;;;23.20;54.60;;;;;;5095314;28;20224;-80
2021/07/03 05:13:48;;;;;;;7.75;7.00;;;23.20;54.60;;;;;;5078588;28;20250;-81
2021/07/03 05:16:14;;;;;;;7.85;7.05;;;23.20;54.70;;;;;;5096332;28;20141;-84
2021/07/03 05:18:40;;;;;;;8.02;7.20;;;23.30;54.60;;;;;;5095728;28;20176;-83
2021/07/03 05:21:06;;;;;;;8.00;7.20;;;23.30;54.60;;;;;;5096663;28;20179;-82
2021/07/03 05:23:31;;;;;;;7.93;7.13;;;23.20;54.50;;;;;;5095116;28;20153;-81
2021/07/03 05:25:57;;;;;;;7.85;7.05;;;23.30;54.40;;;;;;5095160;28;20160;-84
2021/07/03 05:28:24;;;;;;;7.32;6.60;;;23.30;54.40;;;;;;5094816;28;20172;-86
2021/07/03 05:30:50;;;;;;;7.25;6.53;;;23.30;54.40;;;;;;5077962;28;20611;-80
2021/07/03 05:33:16;;;;;;;7.75;7.03;;;23.30;54.30;;;;;;5077934;28;20157;-84
2021/07/03 05:35:42;;;;;;;7.30;6.60;;;23.30;54.40;;;;;;5094787;28;20168;-83
2021/07/03 05:38:08;;;;;;;7.28;6.53;;;23.30;54.30;;;;;;5096386;28;20153;-84
2021/07/03 05:40:34;;;;;;;7.70;7.00;;;23.30;54.40;;;;;;5094706;28;20207;-83
2021/07/03 05:42:59;;;;;;;8.00;7.20;;;23.30;54.40;;;;;;5077918;28;20156;-83
2021/07/03 05:45:25;;;;;;;7.75;7.05;;;23.30;54.40;;;;;;5094748;28;20226;-82
2021/07/03 05:47:51;;;;;;;7.78;6.97;;;23.20;54.50;;;;;;5094566;28;20603;-83
2021/07/03 05:50:20;;;;;;;7.65;6.95;;;23.30;54.60;;;;;;5078232;28;20168;-82
2021/07/03 05:52:45;;;;;;;7.75;7.05;;;23.30;54.50;;;;;;5094256;28;20228;-85
2021/07/03 05:55:12;;;;;;;7.47;6.78;;;23.40;54.40;;;;;;5094389;28;20531;-82
2021/07/03 05:57:38;;;;;;;7.65;6.95;;;23.30;54.30;;;;;;5077498;28;20173;-85
2021/07/03 06:00:05;;;;;;;7.97;7.20;;;23.30;54.30;;;;;;5077266;28;20186;-84
2021/07/03 06:02:31;;;;;;;7.55;6.78;;;23.40;54.40;;;;;;5077366;28;20167;-81
2021/07/03 06:04:57;;;;;;;7.72;7.00;;;23.30;54.40;;;;;;5094852;28;20493;-83
2021/07/03 06:07:24;;;;;;;7.70;7.00;;;23.40;54.20;;;;;;5094527;28;20149;-81
2021/07/03 06:09:50;;;;;;;7.68;6.97;;;23.30;54.20;;;;;;5077565;28;20194;-81
2021/07/03 06:12:16;;;;;;;8.10;7.30;;;23.40;54.40;;;;;;5094125;28;20153;-84
2021/07/03 06:14:41;;;;;;;7.55;6.75;;;23.40;54.20;;;;;;5093876;28;20259;-81
2021/07/03 06:17:13;;;;;;;7.43;6.72;;;23.40;54.10;;;;;;5077155;28;20165;-84
2021/07/03 06:19:39;;;;;;;7.25;6.55;;;23.50;54.00;;;;;;5095079;28;20161;-81
2021/07/03 06:22:04;;;;;;;7.35;6.65;;;23.50;54.10;;;;;;5093974;28;20193;-81
2021/07/03 06:24:30;;;;;;;7.50;6.80;;;23.50;53.80;;;;;;5094029;28;20177;-82
2021/07/03 06:26:56;;;;;;;6.80;6.10;;;23.60;53.90;;;;;;5095083;28;20191;-81
2021/07/03 06:29:22;;;;;;;7.40;6.65;;;23.60;53.80;;;;;;5077386;28;20207;-85
2021/07/03 06:31:47;;;;;;;7.85;7.05;;;23.60;53.90;;;;;;5077136;28;20153;-83
2021/07/03 06:34:13;;;;;;;7.38;6.68;;;23.50;54.10;;;;;;5076838;28;20203;-84
2021/07/03 06:36:39;;;;;;;7.55;6.70;;;23.60;54.00;;;;;;5076953;28;20165;-85
2021/07/03 06:39:05;;;;;;;7.60;6.90;;;23.50;53.80;;;;;;5093445;28;20662;-82
2021/07/03 06:41:31;;;;;;;8.07;7.28;;;23.60;53.70;;;;;;5076628;28;20164;-81
2021/07/03 06:43:59;;;;;;;8.05;7.20;;;23.60;53.70;;;;;;5094693;28;20171;-85
2021/07/03 06:46:28;;;;;;;7.47;6.78;;;23.60;53.80;;;;;;5092747;28;20651;-83
2021/07/03 06:48:56;;;;;;;7.10;6.40;;;23.60;53.90;;;;;;5076252;28;20181;-82
2021/07/03 06:51:23;;;;;;;7.57;6.88;;;23.60;53.90;;;;;;5109690;28;20184;-83
2021/07/03 06:53:53;;;;;;;7.57;6.85;;;23.60;53.90;;;;;;5092115;28;20752;-84
2021/07/03 06:56:20;;;;;;;7.03;6.32;;;23.60;53.80;;;;;;5109333;28;20280;-82
2021/07/03 06:58:47;;;;;;;7.22;6.53;;;23.60;54.00;;;;;;5075395;28;20181;-83
2021/07/03 07:01:13;;;;;;;7.45;6.70;;;23.60;54.40;;;;;;5092112;28;20578;-83
2021/07/03 07:03:38;;;;;;;7.47;6.70;;;23.60;53.60;;;;;;5076206;28;20653;-82
2021/07/03 07:06:04;;;;;;;7.28;6.57;;;23.70;53.50;;;;;;5076123;28;20165;-83
2021/07/03 07:08:30;;;;;;;6.95;6.35;;;23.80;53.30;;;;;;5093190;28;20160;-80
2021/07/03 07:10:55;;;;;;;7.55;6.85;;;23.80;53.20;;;;;;5092441;28;20199;-81
2021/07/03 07:13:21;;;;;;;7.65;6.95;;;23.80;53.20;;;;;;5076063;28;20227;-80
2021/07/03 07:15:48;;;;;;;7.28;6.57;;;23.70;53.30;;;;;;5076033;28;20503;-85
2021/07/03 07:18:13;;;;;;;7.43;6.70;;;23.70;53.50;;;;;;5092039;28;20172;-81
2021/07/03 07:20:39;;;;;;;7.80;7.00;;;23.80;53.40;;;;;;5094020;28;20141;-82
2021/07/03 07:23:05;;;;;;;7.32;6.63;;;23.80;53.30;;;;;;5093087;28;20163;-83
2021/07/03 07:25:31;;;;;;;7.10;6.40;;;23.80;53.20;;;;;;5093011;28;20168;-82
2021/07/03 07:27:56;;;;;;;7.85;6.68;;;23.80;53.30;;;;;;5075882;28;20164;-83
2021/07/03 07:30:22;;;;;;;7.60;6.85;;;23.90;53.10;;;;;;5093835;28;20235;-80
2021/07/03 07:32:48;;;;;;;7.20;6.50;;;23.90;53.20;;;;;;5092679;28;20173;-81
2021/07/03 07:35:13;;;;;;;7.47;6.70;;;23.90;53.30;;;;;;5092570;28;20216;-81
2021/07/03 07:37:39;;;;;;;7.30;6.60;;;23.90;53.00;;;;;;5092523;28;20156;-82
2021/07/03 07:40:05;;;;;;;7.20;6.50;;;23.90;53.10;;;;;;5092523;28;20157;-84
2021/07/03 07:42:31;;;;;;;7.70;6.90;;;23.90;53.20;;;;;;5075563;28;20536;-81
2021/07/03 07:44:57;;;;;;;7.10;6.40;;;23.80;53.20;;;;;;5092426;28;20162;-81
2021/07/03 07:47:23;;;;;;;6.60;6.00;;;23.80;53.30;;;;;;5093661;28;20191;-84
2021/07/03 07:49:49;;;;;;;7.50;6.70;;;23.80;53.20;;;;;;5075441;28;20153;-81
2021/07/03 07:52:14;;;;;;;7.30;6.60;;;23.90;53.20;;;;;;5092053;28;20179;-84
2021/07/03 07:54:40;;;;;;;7.68;6.95;;;24.00;53.10;;;;;;5092640;28;20554;-80
2021/07/03 07:57:06;;;;;;;7.50;6.80;;;24.00;53.00;;;;;;5092206;28;20163;-84
2021/07/03 07:59:32;;;;;;;7.60;6.85;;;24.00;53.00;;;;;;5075355;28;20519;-84
2021/07/03 08:01:58;;;;;;;7.25;6.55;;;24.00;53.00;;;;;;5092645;28;20615;-81
2021/07/03 08:04:23;;;;;;;7.25;6.55;;;23.90;52.90;;;;;;5092179;28;20156;-81
2021/07/03 08:06:49;;;;;;;7.63;6.82;;;23.90;53.00;;;;;;5093407;28;20615;-83
2021/07/03 08:09:15;;;;;;;7.22;6.47;;;24.00;52.90;;;;;;5093338;28;20184;-83
2021/07/03 08:11:40;;;;;;;7.05;6.35;;;23.90;53.00;;;;;;5075239;28;20507;-81
2021/07/03 08:14:06;;;;;;;7.60;6.90;;;23.90;53.20;;;;;;5092086;28;20188;-85
2021/07/03 08:16:32;;;;;;;7.10;6.40;;;23.90;53.10;;;;;;5093196;28;20261;-81
2021/07/03 08:18:57;;;;;;;7.40;6.68;;;23.90;53.00;;;;;;5092088;28;20163;-80
2021/07/03 08:21:23;;;;;;;7.22;6.45;;;23.90;52.90;;;;;;5093820;28;20232;-83
2021/07/03 08:23:49;;;;;;;9.60;6.80;;;24.00;52.90;;;;;;5097407;28;20191;-82
2021/07/03 08:26:15;;;;;;;7.30;6.60;;;23.90;52.90;;;;;;5096330;28;20208;-85
2021/07/03 08:28:40;;;;;;;7.32;6.63;;;24.00;52.90;;;;;;5096177;28;20157;-83
2021/07/03 08:31:06;;;;;;;7.45;6.75;;;24.00;52.90;;;;;;5096258;28;20164;-83
2021/07/03 08:33:32;;;;;;;7.32;6.63;;;24.00;52.90;;;;;;5096084;28;20192;-85
2021/07/03 08:35:57;;;;;;;7.28;6.57;;;24.00;52.90;;;;;;5095885;28;20176;-82
2021/07/03 08:38:24;;;;;;;7.70;7.00;;;24.00;52.80;;;;;;5096117;28;20160;-81
2021/07/03 08:40:50;;;;;;;7.90;7.10;;;24.00;53.00;;;;;;5097159;28;20150;-82
2021/07/03 08:43:16;;;;;;;7.07;6.25;;;24.00;53.00;;;;;;5096220;28;20149;-84
2021/07/03 08:45:42;;;;;;;6.65;6.05;;;23.90;53.20;;;;;;5079595;28;20554;-82
2021/07/03 08:48:07;;;;;;;7.35;6.65;;;23.90;53.10;;;;;;5096060;28;20180;-80
2021/07/03 08:50:33;;;;;;;7.30;6.60;;;23.90;53.00;;;;;;5095915;28;20198;-82
2021/07/03 08:52:59;;;;;;;7.30;6.55;;;24.00;53.00;;;;;;5095985;28;20223;-81
2021/07/03 08:55:27;;;;;;;7.90;7.15;;;24.00;52.90;;;;;;5079041;28;20265;-84
2021/07/03 08:58:02;;;;;;;7.43;6.72;;;24.00;53.00;;;;;;5078859;28;20714;-81
2021/07/03 09:00:34;;;;;;;6.93;6.22;;;24.00;53.00;;;;;;5094986;28;20188;-81
2021/07/03 09:03:00;;;;;;;6.93;6.32;;;24.00;53.10;;;;;;5095403;28;20485;-84
2021/07/03 09:05:30;;;;;;;8.43;7.43;;;24.00;53.00;;;;;;5095562;28;20611;-83
2021/07/03 09:07:57;;;;;;;7.57;6.80;;;24.00;53.00;;;;;;5095593;28;20601;-82
2021/07/03 09:10:23;;;;;;;7.28;6.57;;;24.00;53.00;;;;;;5078938;28;20641;-85
2021/07/03 09:12:50;;;;;;;7.07;6.38;;;24.00;52.90;;;;;;5096584;28;20240;-83
2021/07/03 09:15:19;;;;;;;7.00;6.30;;;24.00;52.90;;;;;;5095215;28;20206;-83
2021/07/03 09:17:48;;;;;;;6.90;6.20;;;24.00;52.80;;;;;;5078727;28;20160;-82
2021/07/03 09:20:14;;;;;;;7.25;6.55;;;24.10;52.70;;;;;;5095301;28;20145;-82
2021/07/03 09:22:39;;;;;;;7.07;6.40;;;24.10;52.80;;;;;;5095664;28;20210;-81
2021/07/03 09:25:16;;;;;;;7.13;6.43;;;24.00;52.70;;;;;;5096124;28;20164;-83
2021/07/03 09:27:42;;;;;;;7.20;6.47;;;24.10;52.60;;;;;;5095117;28;20167;-81
2021/07/03 09:30:08;;;;;;;7.10;6.40;;;24.10;52.60;;;;;;5094954;28;20615;-82
2021/07/03 09:32:34;;;;;;;7.00;6.30;;;24.10;52.60;;;;;;5095701;28;20163;-82
2021/07/03 09:35:06;;;;;;;7.25;6.55;;;24.10;52.70;;;;;;5077445;28;20188;-81
2021/07/03 09:37:32;;;;;;;7.07;6.38;;;24.00;52.80;;;;;;5077962;28;20161;-84
2021/07/03 09:40:07;;;;;;;7.07;6.38;;;24.00;52.80;;;;;;5094874;28;20199;-84
2021/07/03 09:42:40;;;;;;;7.05;6.35;;;24.00;52.80;;;;;;5094838;28;20618;-84
2021/07/03 09:45:07;;;;;;;7.43;6.63;;;24.00;52.70;;;;;;5094681;28;20244;-83
2021/07/03 09:47:34;;;;;;;7.43;6.72;;;24.10;52.60;;;;;;5094574;28;20157;-83
2021/07/03 09:50:10;;;;;;;7.60;6.80;;;24.10;52.60;;;;;;5094850;28;20149;-82
2021/07/03 09:52:36;;;;;;;7.18;6.47;;;24.00;52.80;;;;;;5094498;28;20577;-84
2021/07/03 09:55:06;;;;;;;7.00;6.30;;;24.00;52.80;;;;;;5094558;28;20245;-84
2021/07/03 09:57:35;;;;;;;6.70;6.03;;;24.00;52.70;;;;;;5094695;28;20202;-81
2021/07/03 10:00:01;;;;;;;7.55;6.85;;;24.10;52.70;;;;;;5077651;28;20203;-81
2021/07/03 10:02:26;;;;;;;7.45;6.70;;;24.00;52.80;;;;;;5094448;28;20169;-83
2021/07/03 10:04:52;;;;;;;7.30;6.53;;;24.00;52.80;;;;;;5077475;28;20172;-83
2021/07/03 10:07:22;;;;;;;7.13;6.43;;;24.00;52.80;;;;;;5077951;28;20255;-82
2021/07/03 10:09:54;;;;;;;7.43;6.70;;;24.00;52.70;;;;;;5094385;28;20157;-82
2021/07/03 10:12:28;;;;;;;6.68;6.07;;;24.00;52.80;;;;;;5077649;28;20165;-81
2021/07/03 10:14:54;;;;;;;6.95;6.25;;;24.00;52.80;;;;;;5095305;28;20184;-83
2021/07/03 10:17:32;;;;;;;7.65;6.95;;;24.00;52.80;;;;;;5093962;28;20615;-82
2021/07/03 10:19:59;;;;;;;7.15;6.45;;;24.00;52.80;;;;;;5094074;28;20233;-84
2021/07/03 10:22:28;;;;;;;7.82;6.80;;;24.00;52.90;;;;;;5093356;28;20200;-82
2021/07/03 10:24:58;;;;;;;7.75;7.00;;;23.90;53.00;;;;;;5060076;28;20192;-82
2021/07/03 10:27:27;;;;;;;6.95;6.35;;;23.90;53.10;;;;;;5093618;28;20204;-83
2021/07/03 10:29:57;;;;;;;7.65;6.90;;;23.90;53.10;;;;;;5093437;27;20210;-83
2021/07/03 10:32:29;;;;;;;7.35;6.53;;;23.90;53.00;;;;;;5110429;28;20181;-81
2021/07/03 10:34:55;;;;;;;7.05;6.38;;;23.90;53.20;;;;;;5077012;28;20287;-82
2021/07/03 10:37:33;;;;;;;7.25;6.55;;;23.80;53.30;;;;;;5094932;28;20168;-84
2021/07/03 10:39:59;;;;;;;6.75;6.15;;;23.80;53.20;;;;;;5076746;28;20167;-84
2021/07/03 10:42:27;;;;;;;7.13;6.43;;;23.80;53.40;;;;;;5093591;28;20156;-83
2021/07/03 10:44:52;;;;;;;6.57;5.88;;;23.80;53.40;;;;;;5093273;28;20620;-84
2021/07/03 10:47:19;;;;;;;7.90;7.10;;;23.80;53.30;;;;;;5093349;28;20156;-82
2021/07/03 10:49:44;;;;;;;7.30;6.60;;;23.80;53.20;;;;;;5093392;28;20149;-82
2021/07/03 10:52:12;;;;;;;7.57;6.80;;;23.80;53.30;;;;;;5076962;28;20220;-85
2021/07/03 10:54:38;;;;;;;7.43;6.72;;;23.70;53.50;;;;;;5094828;28;20658;-81
2021/07/03 10:57:04;;;;;;;7.18;6.47;;;23.70;53.50;;;;;;5094535;28;20145;-82
2021/07/03 10:59:33;;;;;;;7.10;6.40;;;23.80;53.50;;;;;;5093670;28;20228;-84
2021/07/03 11:02:09;;;;;;;7.53;6.82;;;23.70;53.30;;;;;;5094485;28;20167;-81
2021/07/03 11:04:51;;;;;;;7.15;6.55;;;23.80;53.40;;;;;;5093162;28;20692;-84
2021/07/03 11:07:18;;;;;;;7.65;6.82;;;23.70;53.40;;;;;;5094356;28;20156;-83
2021/07/03 11:09:44;;;;;;;7.50;6.80;;;23.80;53.50;;;;;;5093148;28;20149;-84
2021/07/03 11:12:14;;;;;;;7.60;6.88;;;23.70;53.50;;;;;;5076135;28;20608;-84
2021/07/03 11:14:53;;;;;;;7.57;6.88;;;23.80;53.40;;;;;;5092867;28;20215;-83
2021/07/03 11:17:20;;;;;;;7.60;6.88;;;23.70;53.40;;;;;;5094176;28;20236;-83
2021/07/03 11:19:49;;;;;;;7.88;7.07;;;23.80;53.50;;;;;;5094101;28;20149;-83
2021/07/03 11:22:16;;;;;;;7.28;6.55;;;23.80;53.40;;;;;;5092912;28;20145;-82
2021/07/03 11:24:54;;;;;;;7.50;6.75;;;23.80;53.40;;;;;;5092984;28;20178;-82
2021/07/03 11:27:36;;;;;;;7.45;6.65;;;23.80;53.50;;;;;;5092724;28;20603;-84
2021/07/03 11:30:07;;;;;;;7.25;6.55;;;23.70;53.80;;;;;;5075789;28;20244;-82
2021/07/03 11:32:34;;;;;;;8.05;7.25;;;23.60;54.00;;;;;;5092523;28;20164;-83
2021/07/03 11:35:02;;;;;;;7.53;6.82;;;23.60;54.00;;;;;;5092536;28;20584;-82
2021/07/03 11:37:35;;;;;;;7.30;6.60;;;23.60;54.10;;;;;;5092617;28;20240;-82
2021/07/03 11:40:04;;;;;;;7.40;6.68;;;23.40;54.00;;;;;;5093630;28;20152;-83
2021/07/03 11:42:32;;;;;;;6.97;6.28;;;23.50;54.10;;;;;;5092604;28;20179;-84
2021/07/03 11:45:00;;;;;;;7.47;6.60;;;23.50;54.10;;;;;;5093574;28;20161;-81
2021/07/03 11:47:37;;;;;;;7.43;6.72;;;23.50;54.20;;;;;;5075740;28;20555;-84
2021/07/03 11:50:05;;;;;;;7.82;6.88;;;23.50;54.20;;;;;;5075504;28;20205;-84
2021/07/03 11:52:46;;;;;;;7.50;6.80;;;23.50;54.20;;;;;;5075159;28;20227;-82
2021/07/03 11:55:12;;;;;;;8.02;7.20;;;23.50;54.20;;;;;;5075736;28;20673;-83
2021/07/03 11:57:40;;;;;;;7.40;6.63;;;23.50;54.20;;;;;;5091595;28;20157;-80
2021/07/03 12:00:08;;;;;;;9.38;7.00;;;23.50;54.10;;;;;;5093259;28;20160;-80
2021/07/03 12:02:35;;;;;;;7.45;6.75;;;23.50;54.10;;;;;;5093018;28;20141;-82
2021/07/03 12:05:01;;;;;;;7.85;7.10;;;23.40;54.20;;;;;;5093356;28;20206;-81
2021/07/03 12:07:27;;;;;;;7.82;6.97;;;23.50;54.20;;;;;;5075158;28;20153;-80
2021/07/03 12:10:04;;;;;;;7.97;7.18;;;23.50;54.10;;;;;;5093559;28;20162;-83
2021/07/03 12:12:30;;;;;;;7.57;6.80;;;23.50;54.20;;;;;;5092009;28;20145;-84
2021/07/03 12:15:04;;;;;;;7.60;6.82;;;23.50;54.20;;;;;;5092902;28;20189;-79
2021/07/03 12:17:32;;;;;;;7.72;6.93;;;23.50;54.00;;;;;;5108395;28;20259;-80
2021/07/03 12:20:09;;;;;;;7.68;6.93;;;23.50;54.00;;;;;;5091244;28;20189;-84
2021/07/03 12:22:39;;;;;;;7.40;6.70;;;23.50;54.60;;;;;;5091459;28;20180;-83
2021/07/03 12:25:14;;;;;;;7.75;6.93;;;23.50;53.60;;;;;;5074339;28;20185;-80
2021/07/03 12:27:50;;;;;;;8.38;7.15;;;23.50;53.70;;;;;;5074175;28;20268;-81
2021/07/03 12:30:18;;;;;;;8.25;7.43;;;23.50;53.70;;;;;;5092994;28;20176;-83
2021/07/03 12:32:46;;;;;;;8.20;7.40;;;23.50;53.70;;;;;;5090264;28;20177;-80
2021/07/03 12:35:13;;;;;;;7.82;7.03;;;23.50;53.80;;;;;;5107506;28;20239;-79
2021/07/03 12:37:40;;;;;;;8.15;7.35;;;23.40;53.80;;;;;;5107026;28;20666;-83
2021/07/03 12:40:15;;;;;;;7.63;6.90;;;23.40;54.40;;;;;;5106704;28;20184;-84
2021/07/03 12:42:43;;;;;;;7.65;6.85;;;23.40;53.50;;;;;;5107301;28;20184;-83
2021/07/03 12:45:11;;;;;;;9.15;6.70;;;23.50;53.60;;;;;;5089949;28;20313;-82
2021/07/03 12:47:39;;;;;;;9.23;7.72;;;23.50;53.20;;;;;;5073413;28;20184;-82